HYS255 LROP-LRTR
Flight info
| Callsign | HYS255 |
|---|---|
| Flight time | 0h 41m |
| Altitude | 32000 |
| Route | SOKRU DCT OXDOC DCT NEKUL |
| Aircraft | A21N/M-SDE2E3FGHIRWXY/LB1 |
Departure
| Time | 2026-04-14 17:07 |
|---|---|
| Airport | Bucharest Henri Coandă International Airport (LROP) |
Arrival
| Time | 2026-04-14 17:49 |
|---|---|
| Airport | Timișoara Traian Vuia International Airport (LRTR) |
| Time | Latitude | Longitude | Altitude | Speed | Heading |
|---|---|---|---|---|---|
| 2026-04-14 16:41 | 44.57260 | 26.08043 | 322 ft | 0 kts | 354° |
| 2026-04-14 16:59 | 44.57248 | 26.08045 | 324 ft | 4 kts | 354° |
| 2026-04-14 16:59 | 44.57221 | 26.08048 | 323 ft | 4 kts | 354° |
| 2026-04-14 17:00 | 44.57202 | 26.08044 | 326 ft | 4 kts | 66° |
| 2026-04-14 17:00 | 44.57197 | 26.08005 | 324 ft | 4 kts | 84° |
| 2026-04-14 17:00 | 44.57196 | 26.07994 | 324 ft | 1 kts | 84° |
| 2026-04-14 17:03 | 44.57197 | 26.08000 | 324 ft | 1 kts | 84° |
| 2026-04-14 17:03 | 44.57200 | 26.08041 | 326 ft | 8 kts | 83° |
| 2026-04-14 17:04 | 44.57208 | 26.08148 | 326 ft | 14 kts | 84° |
| 2026-04-14 17:04 | 44.57220 | 26.08307 | 323 ft | 17 kts | 84° |
| 2026-04-14 17:04 | 44.57230 | 26.08442 | 325 ft | 7 kts | 85° |
| 2026-04-14 17:04 | 44.57253 | 26.08494 | 323 ft | 7 kts | 20° |
| 2026-04-14 17:05 | 44.57316 | 26.08492 | 325 ft | 11 kts | 355° |
| 2026-04-14 17:05 | 44.57403 | 26.08480 | 324 ft | 13 kts | 354° |
| 2026-04-14 17:05 | 44.57496 | 26.08467 | 322 ft | 14 kts | 354° |
| 2026-04-14 17:05 | 44.57574 | 26.08455 | 324 ft | 11 kts | 354° |
| 2026-04-14 17:06 | 44.57631 | 26.08446 | 323 ft | 2 kts | 352° |
| 2026-04-14 17:06 | 44.57647 | 26.08445 | 323 ft | 4 kts | 9° |
| 2026-04-14 17:06 | 44.57665 | 26.08483 | 324 ft | 7 kts | 79° |
| 2026-04-14 17:06 | 44.57673 | 26.08580 | 327 ft | 21 kts | 84° |
| 2026-04-14 17:07 | 44.57710 | 26.09066 | 325 ft | 81 kts | 84° |
| 2026-04-14 17:07 | 44.57793 | 26.10176 | 326 ft | 146 kts | 84° |
| 2026-04-14 17:07 | 44.57912 | 26.11770 | 579 ft | 169 kts | 83° |
| 2026-04-14 17:07 | 44.58047 | 26.13365 | 1310 ft | 163 kts | 86° |
| 2026-04-14 17:08 | 44.58194 | 26.15010 | 1844 ft | 183 kts | 86° |
| 2026-04-14 17:08 | 44.58327 | 26.16913 | 2302 ft | 206 kts | 87° |
| 2026-04-14 17:08 | 44.58477 | 26.18974 | 3061 ft | 218 kts | 84° |
| 2026-04-14 17:08 | 44.58880 | 26.21103 | 3755 ft | 237 kts | 69° |
| 2026-04-14 17:09 | 44.59814 | 26.23113 | 4411 ft | 257 kts | 43° |
| 2026-04-14 17:09 | 44.61387 | 26.24200 | 5271 ft | 264 kts | 7° |
| 2026-04-14 17:09 | 44.63202 | 26.23834 | 6251 ft | 265 kts | 332° |
| 2026-04-14 17:09 | 44.64596 | 26.22205 | 7292 ft | 261 kts | 308° |
| 2026-04-14 17:10 | 44.65587 | 26.20023 | 8141 ft | 268 kts | 296° |
| 2026-04-14 17:10 | 44.66359 | 26.17630 | 9085 ft | 271 kts | 292° |
| 2026-04-14 17:10 | 44.67081 | 26.15140 | 9893 ft | 280 kts | 292° |
| 2026-04-14 17:10 | 44.67851 | 26.12581 | 10613 ft | 291 kts | 293° |
| 2026-04-14 17:11 | 44.68728 | 26.09893 | 10995 ft | 313 kts | 295° |
| 2026-04-14 17:11 | 44.69720 | 26.07089 | 11567 ft | 325 kts | 297° |
| 2026-04-14 17:11 | 44.70780 | 26.04244 | 12357 ft | 332 kts | 297° |
| 2026-04-14 17:11 | 44.71879 | 26.01367 | 13198 ft | 336 kts | 298° |
| 2026-04-14 17:12 | 44.72996 | 25.98473 | 14120 ft | 338 kts | 298° |
| 2026-04-14 17:12 | 44.74124 | 25.95550 | 14916 ft | 342 kts | 298° |
| 2026-04-14 17:12 | 44.75252 | 25.92617 | 15642 ft | 346 kts | 298° |
| 2026-04-14 17:12 | 44.76414 | 25.89582 | 16402 ft | 351 kts | 297° |
| 2026-04-14 17:13 | 44.77561 | 25.86573 | 17122 ft | 355 kts | 297° |
| 2026-04-14 17:13 | 44.78747 | 25.83450 | 17839 ft | 360 kts | 297° |
| 2026-04-14 17:13 | 44.79919 | 25.80359 | 18557 ft | 364 kts | 297° |
| 2026-04-14 17:13 | 44.81113 | 25.77203 | 19194 ft | 367 kts | 297° |
| 2026-04-14 17:14 | 44.82320 | 25.74010 | 19808 ft | 371 kts | 297° |
| 2026-04-14 17:14 | 44.83536 | 25.70790 | 20433 ft | 374 kts | 297° |
| 2026-04-14 17:14 | 44.84761 | 25.67542 | 21052 ft | 377 kts | 297° |
| 2026-04-14 17:14 | 44.85999 | 25.64257 | 21654 ft | 381 kts | 297° |
| 2026-04-14 17:15 | 44.87246 | 25.60947 | 22258 ft | 384 kts | 297° |
| 2026-04-14 17:15 | 44.88502 | 25.57607 | 22841 ft | 387 kts | 297° |
| 2026-04-14 17:15 | 44.89766 | 25.54240 | 23394 ft | 391 kts | 297° |
| 2026-04-14 17:15 | 44.91044 | 25.50834 | 23896 ft | 394 kts | 297° |
| 2026-04-14 17:16 | 44.92315 | 25.47384 | 24339 ft | 398 kts | 295° |
| 2026-04-14 17:16 | 44.93348 | 25.43746 | 24767 ft | 401 kts | 289° |
| 2026-04-14 17:16 | 44.94264 | 25.40017 | 25185 ft | 404 kts | 288° |
| 2026-04-14 17:16 | 44.95152 | 25.36235 | 25598 ft | 407 kts | 288° |
| 2026-04-14 17:17 | 44.96030 | 25.32424 | 26004 ft | 409 kts | 288° |
| 2026-04-14 17:17 | 44.96910 | 25.28583 | 26408 ft | 412 kts | 288° |
| 2026-04-14 17:17 | 44.97791 | 25.24723 | 26792 ft | 415 kts | 288° |
| 2026-04-14 17:17 | 44.98679 | 25.20822 | 27170 ft | 418 kts | 288° |
| 2026-04-14 17:18 | 44.99559 | 25.16952 | 27545 ft | 420 kts | 288° |
| 2026-04-14 17:18 | 45.00455 | 25.13002 | 27923 ft | 423 kts | 288° |
| 2026-04-14 17:18 | 45.01354 | 25.09033 | 28305 ft | 424 kts | 288° |
| 2026-04-14 17:18 | 45.02254 | 25.05050 | 28683 ft | 427 kts | 287° |
| 2026-04-14 17:19 | 45.03160 | 25.01036 | 28963 ft | 430 kts | 287° |
| 2026-04-14 17:19 | 45.04071 | 24.96992 | 29323 ft | 432 kts | 287° |
| 2026-04-14 17:19 | 45.04986 | 24.92921 | 29592 ft | 436 kts | 287° |
| 2026-04-14 17:19 | 45.05893 | 24.88876 | 29940 ft | 437 kts | 287° |
| 2026-04-14 17:20 | 45.06812 | 24.84772 | 30290 ft | 439 kts | 287° |
| 2026-04-14 17:20 | 45.07731 | 24.80663 | 30692 ft | 437 kts | 287° |
| 2026-04-14 17:20 | 45.08640 | 24.76586 | 31146 ft | 433 kts | 287° |
| 2026-04-14 17:20 | 45.09547 | 24.72514 | 31449 ft | 435 kts | 287° |
| 2026-04-14 17:21 | 45.10452 | 24.68439 | 31807 ft | 434 kts | 287° |
| 2026-04-14 17:21 | 45.11359 | 24.64350 | 32104 ft | 434 kts | 287° |
| 2026-04-14 17:21 | 45.12265 | 24.60260 | 32212 ft | 435 kts | 287° |
| 2026-04-14 17:21 | 45.13166 | 24.56180 | 32223 ft | 434 kts | 287° |
| 2026-04-14 17:22 | 45.14962 | 24.48004 | 32230 ft | 434 kts | 287° |
| 2026-04-14 17:22 | 45.16757 | 24.39838 | 32224 ft | 434 kts | 287° |
| 2026-04-14 17:23 | 45.18549 | 24.31649 | 32230 ft | 435 kts | 287° |
| 2026-04-14 17:23 | 45.20332 | 24.23458 | 32228 ft | 434 kts | 287° |
| 2026-04-14 17:24 | 45.22109 | 24.15265 | 32237 ft | 434 kts | 287° |
| 2026-04-14 17:24 | 45.23864 | 24.07144 | 32233 ft | 434 kts | 287° |
| 2026-04-14 17:25 | 45.25626 | 23.98956 | 32228 ft | 433 kts | 287° |
| 2026-04-14 17:25 | 45.27377 | 23.90791 | 32231 ft | 432 kts | 287° |
| 2026-04-14 17:26 | 45.28247 | 23.86719 | 32106 ft | 427 kts | 287° |
| 2026-04-14 17:26 | 45.29097 | 23.82731 | 31818 ft | 416 kts | 287° |
| 2026-04-14 17:26 | 45.29928 | 23.78830 | 31418 ft | 409 kts | 287° |
| 2026-04-14 17:26 | 45.30743 | 23.74990 | 30976 ft | 403 kts | 287° |
| 2026-04-14 17:27 | 45.31547 | 23.71199 | 30496 ft | 399 kts | 286° |
| 2026-04-14 17:27 | 45.32343 | 23.67442 | 29987 ft | 395 kts | 286° |
| 2026-04-14 17:27 | 45.33128 | 23.63726 | 29487 ft | 390 kts | 286° |
| 2026-04-14 17:27 | 45.33900 | 23.60065 | 29036 ft | 385 kts | 286° |
| 2026-04-14 17:28 | 45.34663 | 23.56441 | 28579 ft | 380 kts | 287° |
| 2026-04-14 17:28 | 45.35416 | 23.52855 | 28121 ft | 376 kts | 287° |
| 2026-04-14 17:28 | 45.36159 | 23.49312 | 27682 ft | 373 kts | 287° |
| 2026-04-14 17:28 | 45.36895 | 23.45799 | 27233 ft | 369 kts | 287° |
| 2026-04-14 17:29 | 45.37623 | 23.42318 | 26780 ft | 366 kts | 287° |
| 2026-04-14 17:29 | 45.38344 | 23.38863 | 26331 ft | 363 kts | 287° |
| 2026-04-14 17:29 | 45.39058 | 23.35435 | 25875 ft | 360 kts | 287° |
| 2026-04-14 17:29 | 45.39770 | 23.32014 | 25439 ft | 358 kts | 287° |
| 2026-04-14 17:30 | 45.40472 | 23.28633 | 25002 ft | 355 kts | 287° |
| 2026-04-14 17:30 | 45.41170 | 23.25267 | 24550 ft | 353 kts | 287° |
| 2026-04-14 17:30 | 45.41862 | 23.21925 | 24120 ft | 351 kts | 287° |
| 2026-04-14 17:30 | 45.42540 | 23.18645 | 23668 ft | 349 kts | 287° |
| 2026-04-14 17:31 | 45.43222 | 23.15340 | 23180 ft | 347 kts | 287° |
| 2026-04-14 17:31 | 45.43897 | 23.12061 | 22747 ft | 343 kts | 287° |
| 2026-04-14 17:31 | 45.44565 | 23.08810 | 22301 ft | 340 kts | 286° |
| 2026-04-14 17:31 | 45.45224 | 23.05600 | 21868 ft | 337 kts | 286° |
| 2026-04-14 17:32 | 45.45878 | 23.02414 | 21442 ft | 333 kts | 286° |
| 2026-04-14 17:32 | 45.46524 | 22.99255 | 21020 ft | 330 kts | 286° |
| 2026-04-14 17:32 | 45.47164 | 22.96126 | 20587 ft | 328 kts | 286° |
| 2026-04-14 17:32 | 45.47799 | 22.93012 | 20161 ft | 325 kts | 286° |
| 2026-04-14 17:33 | 45.48427 | 22.89929 | 19747 ft | 323 kts | 286° |
| 2026-04-14 17:33 | 45.49052 | 22.86860 | 19333 ft | 322 kts | 286° |
| 2026-04-14 17:33 | 45.49672 | 22.83807 | 18916 ft | 320 kts | 286° |
| 2026-04-14 17:34 | 45.50902 | 22.77733 | 18028 ft | 317 kts | 286° |
| 2026-04-14 17:34 | 45.51509 | 22.74734 | 17617 ft | 313 kts | 286° |
| 2026-04-14 17:34 | 45.52109 | 22.71765 | 17211 ft | 310 kts | 286° |
| 2026-04-14 17:34 | 45.52696 | 22.68852 | 16810 ft | 308 kts | 285° |
| 2026-04-14 17:35 | 45.53283 | 22.65931 | 16387 ft | 306 kts | 285° |
| 2026-04-14 17:35 | 45.53867 | 22.63026 | 15986 ft | 303 kts | 285° |
| 2026-04-14 17:35 | 45.54446 | 22.60139 | 15586 ft | 302 kts | 285° |
| 2026-04-14 17:35 | 45.55022 | 22.57268 | 15186 ft | 301 kts | 285° |
| 2026-04-14 17:36 | 45.55595 | 22.54404 | 14794 ft | 299 kts | 285° |
| 2026-04-14 17:36 | 45.56165 | 22.51552 | 14402 ft | 298 kts | 285° |
| 2026-04-14 17:36 | 45.56732 | 22.48706 | 14003 ft | 297 kts | 285° |
| 2026-04-14 17:36 | 45.57297 | 22.45870 | 13566 ft | 297 kts | 285° |
| 2026-04-14 17:37 | 45.57859 | 22.43047 | 13171 ft | 295 kts | 285° |
| 2026-04-14 17:37 | 45.58417 | 22.40236 | 12781 ft | 293 kts | 285° |
| 2026-04-14 17:37 | 45.58971 | 22.37442 | 12381 ft | 291 kts | 285° |
| 2026-04-14 17:37 | 45.59513 | 22.34708 | 12002 ft | 290 kts | 285° |
| 2026-04-14 17:38 | 45.60060 | 22.31943 | 11620 ft | 289 kts | 285° |
| 2026-04-14 17:38 | 45.60605 | 22.29183 | 11231 ft | 288 kts | 285° |
| 2026-04-14 17:38 | 45.61148 | 22.26432 | 10844 ft | 287 kts | 285° |
| 2026-04-14 17:38 | 45.61688 | 22.23692 | 10457 ft | 286 kts | 284° |
| 2026-04-14 17:39 | 45.62225 | 22.20961 | 10128 ft | 284 kts | 284° |
| 2026-04-14 17:39 | 45.62748 | 22.18301 | 9983 ft | 273 kts | 285° |
| 2026-04-14 17:39 | 45.63263 | 22.15675 | 9509 ft | 276 kts | 285° |
| 2026-04-14 17:39 | 45.63780 | 22.13039 | 9120 ft | 275 kts | 284° |
| 2026-04-14 17:40 | 45.64293 | 22.10412 | 8763 ft | 272 kts | 284° |
| 2026-04-14 17:40 | 45.64799 | 22.07820 | 8412 ft | 270 kts | 284° |
| 2026-04-14 17:40 | 45.65304 | 22.05236 | 8057 ft | 268 kts | 284° |
| 2026-04-14 17:40 | 45.65803 | 22.02673 | 7715 ft | 267 kts | 284° |
| 2026-04-14 17:41 | 45.66300 | 22.00118 | 7372 ft | 266 kts | 284° |
| 2026-04-14 17:41 | 45.66786 | 21.97617 | 7035 ft | 265 kts | 284° |
| 2026-04-14 17:41 | 45.67279 | 21.95077 | 6686 ft | 264 kts | 284° |
| 2026-04-14 17:41 | 45.67770 | 21.92543 | 6341 ft | 264 kts | 284° |
| 2026-04-14 17:42 | 45.68258 | 21.90016 | 5985 ft | 263 kts | 284° |
| 2026-04-14 17:42 | 45.68745 | 21.87500 | 5652 ft | 261 kts | 284° |
| 2026-04-14 17:42 | 45.69226 | 21.85004 | 5307 ft | 259 kts | 284° |
| 2026-04-14 17:42 | 45.69703 | 21.82530 | 4971 ft | 257 kts | 285° |
| 2026-04-14 17:43 | 45.70177 | 21.80068 | 4628 ft | 256 kts | 285° |
| 2026-04-14 17:43 | 45.70647 | 21.77627 | 4308 ft | 254 kts | 284° |
| 2026-04-14 17:43 | 45.71109 | 21.75225 | 3983 ft | 252 kts | 284° |
| 2026-04-14 17:43 | 45.71572 | 21.72815 | 3656 ft | 250 kts | 284° |
| 2026-04-14 17:44 | 45.72031 | 21.70421 | 3342 ft | 249 kts | 284° |
| 2026-04-14 17:44 | 45.72489 | 21.68028 | 3065 ft | 253 kts | 284° |
| 2026-04-14 17:44 | 45.72977 | 21.65619 | 2993 ft | 245 kts | 287° |
| 2026-04-14 17:44 | 45.73530 | 21.63387 | 2989 ft | 232 kts | 290° |
| 2026-04-14 17:45 | 45.74092 | 21.61225 | 2997 ft | 232 kts | 289° |
| 2026-04-14 17:45 | 45.74637 | 21.59052 | 2999 ft | 232 kts | 288° |
| 2026-04-14 17:45 | 45.75175 | 21.56868 | 2998 ft | 233 kts | 288° |
| 2026-04-14 17:45 | 45.75717 | 21.54684 | 3016 ft | 233 kts | 289° |
| 2026-04-14 17:46 | 45.76268 | 21.52504 | 2852 ft | 232 kts | 289° |
| 2026-04-14 17:46 | 45.76815 | 21.50364 | 2535 ft | 226 kts | 289° |
| 2026-04-14 17:46 | 45.77341 | 21.48270 | 2186 ft | 219 kts | 288° |
| 2026-04-14 17:46 | 45.77836 | 21.46297 | 1906 ft | 202 kts | 289° |
| 2026-04-14 17:47 | 45.78292 | 21.44483 | 1647 ft | 186 kts | 289° |
| 2026-04-14 17:47 | 45.78708 | 21.42826 | 1397 ft | 168 kts | 289° |
| 2026-04-14 17:47 | 45.78961 | 21.41820 | 1257 ft | 157 kts | 288° |
| 2026-04-14 17:47 | 45.79312 | 21.40418 | 1046 ft | 143 kts | 290° |
| 2026-04-14 17:48 | 45.79641 | 21.39113 | 853 ft | 138 kts | 291° |
| 2026-04-14 17:48 | 45.79965 | 21.37827 | 669 ft | 137 kts | 291° |
| 2026-04-14 17:48 | 45.80288 | 21.36536 | 473 ft | 137 kts | 290° |
| 2026-04-14 17:48 | 45.80614 | 21.35254 | 370 ft | 135 kts | 290° |
| 2026-04-14 17:49 | 45.80889 | 21.34160 | 361 ft | 92 kts | 290° |
| 2026-04-14 17:49 | 45.81046 | 21.33534 | 362 ft | 47 kts | 290° |
| 2026-04-14 17:49 | 45.81154 | 21.33110 | 358 ft | 44 kts | 290° |
| 2026-04-14 17:49 | 45.81249 | 21.32731 | 363 ft | 35 kts | 290° |
| 2026-04-14 17:50 | 45.81328 | 21.32414 | 360 ft | 30 kts | 289° |
| 2026-04-14 17:50 | 45.81377 | 21.32189 | 355 ft | 15 kts | 264° |
| 2026-04-14 17:50 | 45.81299 | 21.32118 | 357 ft | 14 kts | 200° |
| 2026-04-14 17:50 | 45.81206 | 21.32070 | 361 ft | 14 kts | 200° |
| 2026-04-14 17:51 | 45.81132 | 21.32079 | 356 ft | 10 kts | 118° |
| 2026-04-14 17:51 | 45.81104 | 21.32174 | 358 ft | 10 kts | 113° |
| 2026-04-14 17:51 | 45.81081 | 21.32228 | 361 ft | 2 kts | 162° |
| 2026-04-14 17:51 | 45.81068 | 21.32229 | 358 ft | 2 kts | 175° |
| 2026-04-14 17:52 | 45.81058 | 21.32230 | 357 ft | 0 kts | 175° |